createdAt,value
2023-04-26T00:00:43.628Z,5.49
2023-04-26T00:03:31.762Z,5.39
2023-04-26T00:06:18.714Z,5.59
2023-04-26T00:09:05.443Z,5.58
2023-04-26T00:11:51.645Z,5.43
2023-04-26T00:14:38.240Z,4.97
2023-04-26T00:17:24.985Z,4.74
2023-04-26T00:20:13.491Z,4.56
2023-04-26T00:23:00.161Z,4.41
2023-04-26T00:25:46.272Z,4.17
2023-04-26T00:28:32.655Z,4.04
2023-04-26T00:31:19.590Z,4.02
2023-04-26T00:34:06.402Z,4.07
2023-04-26T00:36:54.201Z,3.93
2023-04-26T00:39:40.879Z,3.93
2023-04-26T00:42:28.320Z,3.97
2023-04-26T00:45:14.671Z,4.02
2023-04-26T00:48:02.565Z,3.91
2023-04-26T00:50:49.714Z,3.82
2023-04-26T00:53:37.822Z,3.94
2023-04-26T00:56:26.305Z,3.91
2023-04-26T00:59:12.477Z,3.90
2023-04-26T01:02:00.067Z,3.87
2023-04-26T01:04:46.071Z,3.93
2023-04-26T01:07:33.384Z,3.92
2023-04-26T01:10:24.079Z,3.92
2023-04-26T01:13:11.445Z,3.87
2023-04-26T01:16:00.055Z,3.85
2023-04-26T01:18:52.335Z,3.86
2023-04-26T01:21:39.247Z,3.72
2023-04-26T01:24:26.938Z,3.57
2023-04-26T01:27:13.610Z,3.53
2023-04-26T01:30:00.773Z,3.49
2023-04-26T01:32:47.222Z,3.37
2023-04-26T01:35:33.640Z,3.39
2023-04-26T01:38:20.202Z,3.45
2023-04-26T01:41:08.090Z,3.45
2023-04-26T01:43:55.440Z,3.39
2023-04-26T01:46:41.463Z,3.40
2023-04-26T01:49:28.184Z,3.37
2023-04-26T01:52:14.606Z,3.33
2023-04-26T01:55:00.987Z,3.36
2023-04-26T01:57:48.680Z,3.42
2023-04-26T02:00:35.002Z,3.43
2023-04-26T02:03:21.697Z,3.41
2023-04-26T02:06:10.101Z,3.39
2023-04-26T02:08:56.478Z,3.29
2023-04-26T02:11:42.592Z,3.25
2023-04-26T02:14:30.425Z,3.24
2023-04-26T02:17:17.239Z,3.18
2023-04-26T02:20:03.948Z,3.03
2023-04-26T02:22:50.153Z,2.96
2023-04-26T02:25:37.298Z,2.92
2023-04-26T02:28:23.475Z,2.86
2023-04-26T02:31:11.524Z,2.82
2023-04-26T02:33:58.144Z,2.83
2023-04-26T02:36:44.151Z,2.78
2023-04-26T02:39:30.479Z,2.68
2023-04-26T02:42:16.847Z,2.58
2023-04-26T02:45:03.361Z,2.53
2023-04-26T02:47:51.284Z,2.53
2023-04-26T02:50:37.982Z,2.40
2023-04-26T02:53:25.280Z,2.43
2023-04-26T02:56:11.918Z,2.42
2023-04-26T02:58:58.386Z,2.30
2023-04-26T03:01:44.789Z,2.29
2023-04-26T03:04:36.062Z,2.43
2023-04-26T03:07:22.530Z,2.44
2023-04-26T03:10:09.843Z,2.30
2023-04-26T03:12:56.939Z,2.26
2023-04-26T03:15:45.890Z,2.30
2023-04-26T03:18:32.266Z,2.24
2023-04-26T03:21:20.951Z,2.32
2023-04-26T03:24:08.069Z,2.26
2023-04-26T03:26:54.600Z,2.31
2023-04-26T03:29:43.884Z,2.29
2023-04-26T03:32:30.983Z,2.19
2023-04-26T03:35:17.208Z,2.14
2023-04-26T03:38:04.857Z,2.08
2023-04-26T03:40:51.184Z,2.10
2023-04-26T03:43:37.415Z,2.10
2023-04-26T03:46:23.708Z,2.07
2023-04-26T03:49:10.292Z,2.09
2023-04-26T03:51:57.187Z,2.12
2023-04-26T03:54:45.922Z,2.14
2023-04-26T03:57:32.290Z,2.23
2023-04-26T04:00:19.674Z,2.28
2023-04-26T04:03:07.916Z,2.42
2023-04-26T04:05:54.631Z,2.50
2023-04-26T04:08:40.966Z,2.60
2023-04-26T04:11:29.842Z,2.63
2023-04-26T04:14:15.912Z,2.79
2023-04-26T04:17:02.063Z,2.92
2023-04-26T04:19:49.457Z,3.07
2023-04-26T04:22:36.145Z,3.00
2023-04-26T04:25:22.966Z,3.01
2023-04-26T04:28:11.218Z,3.19
2023-04-26T04:30:58.499Z,3.40
2023-04-26T04:33:45.613Z,3.40
2023-04-26T04:36:32.327Z,3.37
2023-04-26T04:39:18.943Z,3.45
2023-04-26T04:42:05.719Z,3.64
2023-04-26T04:44:53.807Z,3.91
2023-04-26T04:47:39.853Z,4.25
2023-04-26T04:50:26.445Z,4.43
2023-04-26T04:53:13.801Z,4.48
2023-04-26T04:56:00.778Z,4.57
2023-04-26T04:58:47.752Z,4.60
2023-04-26T05:01:37.401Z,4.72
2023-04-26T05:04:28.745Z,4.81
2023-04-26T05:07:15.741Z,4.97
2023-04-26T05:10:02.691Z,5.26
2023-04-26T05:12:50.542Z,5.25
2023-04-26T05:15:36.839Z,5.51
2023-04-26T05:18:24.906Z,5.70
2023-04-26T05:21:11.436Z,6.08
2023-04-26T05:23:57.545Z,5.82
2023-04-26T05:26:43.535Z,6.19
2023-04-26T05:29:52.396Z,6.61
2023-04-26T05:32:58.884Z,6.79
2023-04-26T05:36:09.157Z,6.80
2023-04-26T05:38:55.553Z,7.25
2023-04-26T05:41:42.337Z,7.27
2023-04-26T05:44:28.796Z,7.21
2023-04-26T05:47:15.699Z,6.93
2023-04-26T05:50:08.176Z,6.75
2023-04-26T05:52:55.682Z,7.14
2023-04-26T05:55:42.270Z,7.57
2023-04-26T05:58:28.590Z,7.98
2023-04-26T06:01:15.268Z,8.64
2023-04-26T06:04:01.789Z,8.68
2023-04-26T06:06:54.733Z,8.24
2023-04-26T06:09:42.914Z,8.87
2023-04-26T06:12:29.669Z,8.88
2023-04-26T06:15:17.362Z,8.54
2023-04-26T06:18:05.986Z,8.66
2023-04-26T06:20:53.090Z,8.37
2023-04-26T06:23:39.834Z,8.46
2023-04-26T06:26:27.380Z,8.42
2023-04-26T06:29:13.756Z,8.39
2023-04-26T06:32:00.386Z,8.16
2023-04-26T06:34:47.230Z,8.25
2023-04-26T06:37:33.893Z,7.94
2023-04-26T06:40:20.955Z,7.80
2023-04-26T06:43:09.278Z,7.96
2023-04-26T06:46:19.664Z,7.93
2023-04-26T06:49:12.400Z,7.59
2023-04-26T06:51:59.010Z,7.79
2023-04-26T06:54:54.015Z,7.86
2023-04-26T06:57:43.384Z,8.39
2023-04-26T07:00:31.780Z,8.55
2023-04-26T07:03:18.148Z,8.25
2023-04-26T07:06:05.015Z,7.98
2023-04-26T07:08:51.771Z,8.19
2023-04-26T07:11:38.037Z,7.82
2023-04-26T07:14:24.595Z,8.30
2023-04-26T07:17:12.142Z,8.38
2023-04-26T07:19:58.353Z,8.39
2023-04-26T07:22:44.956Z,8.58
2023-04-26T07:25:31.371Z,8.74
2023-04-26T07:28:17.880Z,8.62
2023-04-26T07:31:06.555Z,8.82
2023-04-26T07:33:56.040Z,8.71
2023-04-26T07:36:42.732Z,9.00
2023-04-26T07:39:28.981Z,8.78
2023-04-26T07:42:16.484Z,8.61
2023-04-26T07:45:03.885Z,9.33
2023-04-26T07:47:50.314Z,9.31
2023-04-26T07:50:39.667Z,9.37
2023-04-26T07:53:26.391Z,9.78
2023-04-26T07:56:12.701Z,9.34
2023-04-26T07:58:59.398Z,10.21
2023-04-26T08:01:46.076Z,11.00
2023-04-26T08:04:34.948Z,10.73
2023-04-26T08:07:23.027Z,10.77
2023-04-26T08:10:10.982Z,11.41
2023-04-26T08:13:05.695Z,11.44
2023-04-26T08:15:52.139Z,11.34
2023-04-26T08:18:38.689Z,11.57
2023-04-26T08:21:27.187Z,11.01
2023-04-26T08:24:16.483Z,11.12
2023-04-26T08:27:03.700Z,10.38
2023-04-26T08:29:53.516Z,10.42
2023-04-26T08:32:40.984Z,10.65
2023-04-26T08:35:30.839Z,11.17
2023-04-26T08:38:17.227Z,11.32
2023-04-26T08:41:06.467Z,11.33
2023-04-26T08:43:53.324Z,10.47
2023-04-26T08:46:46.038Z,10.22
2023-04-26T08:49:41.271Z,9.68
2023-04-26T08:52:29.554Z,9.79
2023-04-26T08:55:17.466Z,9.75
2023-04-26T08:58:06.836Z,9.44
2023-04-26T09:00:53.804Z,9.37
2023-04-26T09:03:40.194Z,9.76
2023-04-26T09:06:28.080Z,10.24
2023-04-26T09:09:18.717Z,10.37
2023-04-26T09:12:06.402Z,10.41
2023-04-26T09:14:54.104Z,10.79
2023-04-26T09:17:42.001Z,10.81
2023-04-26T09:20:30.257Z,11.11
2023-04-26T09:23:17.110Z,10.65
2023-04-26T09:26:19.252Z,10.08
2023-04-26T09:29:14.907Z,10.55
2023-04-26T09:32:03.133Z,10.85
2023-04-26T09:34:49.836Z,11.21
2023-04-26T09:37:41.150Z,11.11
2023-04-26T09:40:36.480Z,12.02
2023-04-26T09:43:24.379Z,12.28
2023-04-26T09:46:10.684Z,12.44
2023-04-26T09:49:04.627Z,12.18
2023-04-26T09:52:01.290Z,12.05
2023-04-26T09:54:49.461Z,11.95
2023-04-26T09:57:44.097Z,12.15
2023-04-26T10:00:31.070Z,12.08
2023-04-26T10:03:21.328Z,12.43
2023-04-26T10:06:10.378Z,10.70
2023-04-26T10:08:58.050Z,11.43
2023-04-26T10:11:44.491Z,11.54
2023-04-26T10:14:32.567Z,11.73
2023-04-26T10:17:21.874Z,11.10
2023-04-26T10:20:13.515Z,10.76
2023-04-26T10:23:06.336Z,10.46
2023-04-26T10:25:53.438Z,10.43
2023-04-26T10:29:01.955Z,11.10
2023-04-26T10:32:12.032Z,11.42
2023-04-26T10:35:12.584Z,11.78
2023-04-26T10:38:11.705Z,11.97
2023-04-26T10:41:36.156Z,11.93
2023-04-26T10:44:41.240Z,12.04
2023-04-26T10:47:32.947Z,11.88
2023-04-26T10:50:20.130Z,12.20
2023-04-26T10:53:06.989Z,12.62
2023-04-26T10:55:55.173Z,12.41
2023-04-26T10:58:42.584Z,12.86
2023-04-26T11:01:31.447Z,13.14
2023-04-26T11:04:18.641Z,12.26
2023-04-26T11:07:05.460Z,11.63
2023-04-26T11:09:53.555Z,12.19
2023-04-26T11:12:43.312Z,12.60
2023-04-26T11:15:31.869Z,12.44
2023-04-26T11:18:22.002Z,13.10
2023-04-26T11:21:09.069Z,12.69
2023-04-26T11:23:56.322Z,13.26
2023-04-26T11:26:43.011Z,13.36
2023-04-26T11:29:31.162Z,13.93
2023-04-26T11:32:18.775Z,13.70
2023-04-26T11:35:06.611Z,13.39
2023-04-26T11:37:53.817Z,13.88
2023-04-26T11:40:41.924Z,13.46
2023-04-26T11:43:36.964Z,14.05
2023-04-26T11:46:25.943Z,13.35
2023-04-26T11:49:12.589Z,13.71
2023-04-26T11:51:59.672Z,12.21
2023-04-26T11:54:45.765Z,12.82
2023-04-26T11:57:33.767Z,13.81
2023-04-26T12:00:21.306Z,13.51
2023-04-26T12:03:11.392Z,14.02
2023-04-26T12:05:57.930Z,14.38
2023-04-26T12:08:52.300Z,14.78
2023-04-26T12:11:39.115Z,14.33
2023-04-26T12:14:25.743Z,13.73
2023-04-26T12:17:12.002Z,13.70
2023-04-26T12:19:59.599Z,13.40
2023-04-26T12:22:59.055Z,13.96
2023-04-26T12:25:55.698Z,13.64
2023-04-26T12:28:42.675Z,13.36
2023-04-26T12:31:30.643Z,13.26
2023-04-26T12:34:17.362Z,12.70
2023-04-26T12:37:05.326Z,12.69
2023-04-26T12:39:52.538Z,13.41
2023-04-26T12:42:39.072Z,13.88
2023-04-26T12:45:26.993Z,13.95
2023-04-26T12:48:13.732Z,12.98
2023-04-26T12:51:01.552Z,13.19
2023-04-26T12:53:50.956Z,13.23
2023-04-26T12:56:40.866Z,13.58
2023-04-26T12:59:29.109Z,13.69
2023-04-26T13:02:16.348Z,14.39
2023-04-26T13:05:06.378Z,13.48
2023-04-26T13:07:53.003Z,13.72
2023-04-26T13:10:40.554Z,13.42
2023-04-26T13:13:39.904Z,14.03
2023-04-26T13:16:30.110Z,14.72
2023-04-26T13:19:17.573Z,14.29
2023-04-26T13:22:04.824Z,14.72
2023-04-26T13:24:51.536Z,14.65
2023-04-26T13:27:39.071Z,14.82
2023-04-26T13:30:25.867Z,15.27
2023-04-26T13:33:12.476Z,14.92
2023-04-26T13:35:59.229Z,14.56
2023-04-26T13:38:46.480Z,15.13
2023-04-26T13:41:34.896Z,15.50
2023-04-26T13:44:22.587Z,15.51
2023-04-26T13:47:09.575Z,15.23
2023-04-26T13:49:55.739Z,14.90
2023-04-26T13:52:43.046Z,14.29
2023-04-26T13:55:30.994Z,13.96
2023-04-26T13:58:18.139Z,14.17
2023-04-26T14:01:06.536Z,13.59
2023-04-26T14:03:55.934Z,13.84
2023-04-26T14:06:44.838Z,13.36
2023-04-26T14:09:31.416Z,12.59
2023-04-26T14:12:18.349Z,12.40
2023-04-26T14:15:06.230Z,12.12
2023-04-26T14:17:55.222Z,11.73
2023-04-26T14:20:41.956Z,11.78
2023-04-26T14:23:28.587Z,11.79
2023-04-26T14:26:14.714Z,11.77
2023-04-26T14:29:02.272Z,11.66
2023-04-26T14:31:48.433Z,12.53
2023-04-26T14:34:39.867Z,12.58
2023-04-26T14:37:26.108Z,13.20
2023-04-26T14:40:13.773Z,13.16
2023-04-26T14:43:00.921Z,13.52
2023-04-26T14:45:47.783Z,13.96
2023-04-26T14:48:34.238Z,14.01
2023-04-26T14:51:22.689Z,13.88
2023-04-26T14:54:09.277Z,13.87
2023-04-26T14:56:56.960Z,13.95
2023-04-26T14:59:43.316Z,14.07
2023-04-26T15:02:29.725Z,14.58
2023-04-26T15:05:16.220Z,14.41
2023-04-26T15:08:04.700Z,13.84
2023-04-26T15:10:51.249Z,14.30
2023-04-26T15:13:37.724Z,14.43
2023-04-26T15:16:24.385Z,14.62
2023-04-26T15:19:11.410Z,14.96
2023-04-26T15:21:57.796Z,14.25
2023-04-26T15:24:46.118Z,14.57
2023-04-26T15:27:35.509Z,14.63
2023-04-26T15:30:22.247Z,14.49
2023-04-26T15:33:10.306Z,14.30
2023-04-26T15:35:57.411Z,14.44
2023-04-26T15:38:45.294Z,13.65
2023-04-26T15:41:33.367Z,13.41
2023-04-26T15:44:19.828Z,13.13
2023-04-26T15:47:07.060Z,13.27
2023-04-26T15:49:54.749Z,13.38
2023-04-26T15:52:41.964Z,12.80
2023-04-26T15:55:28.396Z,12.71
2023-04-26T15:58:16.046Z,12.55
2023-04-26T16:01:02.365Z,12.71
2023-04-26T16:03:49.936Z,12.47
2023-04-26T16:06:36.470Z,11.87
2023-04-26T16:09:25.663Z,11.97
2023-04-26T16:12:12.713Z,12.19
2023-04-26T16:15:01.312Z,11.88
2023-04-26T16:17:47.889Z,11.77
2023-04-26T16:20:35.220Z,12.02
2023-04-26T16:23:24.213Z,11.96
2023-04-26T16:26:10.515Z,12.04
2023-04-26T16:28:56.871Z,11.94
2023-04-26T16:31:45.521Z,11.65
2023-04-26T16:34:34.350Z,11.51
2023-04-26T16:37:23.816Z,11.67
2023-04-26T16:40:11.410Z,11.75
2023-04-26T16:42:57.674Z,11.45
2023-04-26T16:46:00.371Z,11.62
2023-04-26T16:48:54.188Z,11.63
2023-04-26T16:51:44.637Z,11.46
2023-04-26T16:54:31.807Z,11.46
2023-04-26T16:57:19.033Z,11.34
2023-04-26T17:00:08.340Z,11.32
2023-04-26T17:02:55.634Z,11.52
2023-04-26T17:05:51.173Z,11.84
2023-04-26T17:08:38.074Z,11.63
2023-04-26T17:11:27.163Z,11.60
2023-04-26T17:14:14.702Z,11.27
2023-04-26T17:17:03.176Z,11.31
2023-04-26T17:19:49.724Z,11.28
2023-04-26T17:22:37.547Z,11.39
2023-04-26T17:25:24.443Z,10.92
2023-04-26T17:28:15.194Z,11.21
2023-04-26T17:31:01.849Z,11.19
2023-04-26T17:33:48.250Z,11.29
2023-04-26T17:36:37.533Z,11.47
2023-04-26T17:39:25.058Z,11.15
2023-04-26T17:42:11.578Z,11.07
2023-04-26T17:45:00.629Z,11.30
2023-04-26T17:47:47.134Z,11.33
2023-04-26T17:50:33.470Z,11.18
2023-04-26T17:53:20.014Z,11.61
2023-04-26T17:56:09.936Z,11.65
2023-04-26T17:58:57.248Z,11.13
2023-04-26T18:01:43.814Z,11.13
2023-04-26T18:04:30.678Z,11.18
2023-04-26T18:07:19.450Z,10.98
2023-04-26T18:10:07.595Z,10.85
2023-04-26T18:12:55.430Z,10.82
2023-04-26T18:15:41.747Z,10.81
2023-04-26T18:18:28.423Z,10.80
2023-04-26T18:21:15.033Z,10.94
2023-04-26T18:24:01.472Z,10.77
2023-04-26T18:26:48.261Z,10.57
2023-04-26T18:29:36.314Z,10.43
2023-04-26T18:32:22.832Z,10.28
2023-04-26T18:35:09.852Z,10.34
2023-04-26T18:37:56.062Z,10.08
2023-04-26T18:40:44.244Z,10.13
2023-04-26T18:43:30.856Z,10.01
2023-04-26T18:46:18.334Z,10.14
2023-04-26T18:49:04.856Z,10.24
2023-04-26T18:51:51.499Z,9.92
2023-04-26T18:54:38.932Z,9.73
2023-04-26T18:57:26.822Z,9.68
2023-04-26T19:00:14.221Z,9.68
2023-04-26T19:03:02.464Z,9.61
2023-04-26T19:05:49.036Z,9.54
2023-04-26T19:08:35.951Z,9.50
2023-04-26T19:11:22.228Z,9.45
2023-04-26T19:14:09.004Z,9.60
2023-04-26T19:16:56.262Z,9.54
2023-04-26T19:19:43.802Z,9.44
2023-04-26T19:22:31.124Z,9.46
2023-04-26T19:25:20.387Z,9.36
2023-04-26T19:28:06.796Z,9.50
2023-04-26T19:30:54.152Z,9.27
2023-04-26T19:33:40.886Z,9.49
2023-04-26T19:36:28.736Z,9.13
2023-04-26T19:39:16.127Z,9.20
2023-04-26T19:42:03.276Z,9.42
2023-04-26T19:44:49.900Z,9.43
2023-04-26T19:47:36.108Z,9.31
2023-04-26T19:50:22.283Z,9.27
2023-04-26T19:53:10.682Z,9.33
2023-04-26T19:55:57.230Z,9.05
2023-04-26T19:58:43.738Z,9.14
2023-04-26T20:01:30.674Z,9.07
2023-04-26T20:04:17.587Z,8.97
2023-04-26T20:07:04.924Z,8.88
2023-04-26T20:09:53.019Z,8.93
2023-04-26T20:12:40.381Z,8.80
2023-04-26T20:15:26.768Z,8.72
2023-04-26T20:18:13.192Z,8.61
2023-04-26T20:20:59.593Z,8.40
2023-04-26T20:23:46.480Z,8.32
2023-04-26T20:26:34.016Z,8.15
2023-04-26T20:29:20.422Z,8.04
2023-04-26T20:32:06.856Z,7.93
2023-04-26T20:34:53.112Z,7.81
2023-04-26T20:37:39.988Z,7.74
2023-04-26T20:40:26.504Z,7.68
2023-04-26T20:43:13.994Z,7.67
2023-04-26T20:46:00.495Z,7.56
2023-04-26T20:48:46.970Z,7.35
2023-04-26T20:51:34.082Z,7.30
2023-04-26T20:54:20.386Z,7.33
2023-04-26T20:57:06.637Z,7.22
2023-04-26T20:59:54.314Z,7.17
2023-04-26T21:02:40.894Z,7.03
2023-04-26T21:05:27.240Z,6.96
2023-04-26T21:08:13.695Z,7.05
2023-04-26T21:10:59.833Z,7.04
2023-04-26T21:13:48.090Z,7.01
2023-04-26T21:16:36.124Z,6.97
2023-04-26T21:19:22.439Z,6.92
2023-04-26T21:22:09.367Z,6.80
2023-04-26T21:24:55.661Z,6.88
2023-04-26T21:27:42.103Z,6.79
2023-04-26T21:30:28.398Z,6.78
2023-04-26T21:33:16.767Z,6.79
2023-04-26T21:36:03.636Z,6.70
2023-04-26T21:38:49.961Z,6.55
2023-04-26T21:41:36.306Z,6.49
2023-04-26T21:44:22.447Z,6.45
2023-04-26T21:47:08.756Z,6.57
2023-04-26T21:49:56.669Z,6.56
2023-04-26T21:52:42.949Z,6.47
2023-04-26T21:55:28.925Z,6.38
2023-04-26T21:58:15.124Z,6.26
2023-04-26T22:01:09.224Z,6.06
2023-04-26T22:03:55.717Z,5.90
2023-04-26T22:06:43.510Z,5.85
2023-04-26T22:09:29.882Z,5.64
2023-04-26T22:12:16.411Z,5.62
2023-04-26T22:15:02.673Z,5.46
2023-04-26T22:17:48.991Z,5.29
2023-04-26T22:20:35.567Z,5.26
2023-04-26T22:23:23.103Z,5.25
2023-04-26T22:26:09.169Z,5.11
2023-04-26T22:28:55.640Z,5.07
2023-04-26T22:31:42.037Z,4.99
2023-04-26T22:34:28.576Z,4.84
2023-04-26T22:37:21.154Z,4.83
2023-04-26T22:40:11.720Z,4.70
2023-04-26T22:42:58.047Z,4.65
2023-04-26T22:45:44.331Z,4.58
2023-04-26T22:48:30.806Z,4.73
2023-04-26T22:51:17.279Z,4.61
2023-04-26T22:54:04.212Z,4.66
2023-04-26T22:56:51.879Z,4.64
2023-04-26T22:59:38.603Z,4.64
2023-04-26T23:02:24.925Z,4.75
2023-04-26T23:05:11.915Z,4.76
2023-04-26T23:07:58.467Z,4.73
2023-04-26T23:10:44.662Z,4.76
2023-04-26T23:13:32.204Z,4.81
2023-04-26T23:16:18.674Z,4.88
2023-04-26T23:19:04.963Z,4.72
2023-04-26T23:21:51.535Z,4.59
2023-04-26T23:24:37.926Z,4.58
2023-04-26T23:27:24.715Z,4.58
2023-04-26T23:30:13.870Z,4.59
2023-04-26T23:33:00.102Z,4.42
2023-04-26T23:35:46.420Z,4.37
2023-04-26T23:38:32.767Z,4.26
2023-04-26T23:41:19.169Z,4.14
2023-04-26T23:44:05.754Z,4.10
2023-04-26T23:46:53.435Z,4.01
2023-04-26T23:49:39.870Z,3.92
2023-04-26T23:52:26.014Z,4.03
2023-04-26T23:55:12.477Z,4.00
2023-04-26T23:57:58.868Z,3.94
